Share

Artemivs'k, Ukraine

2:03 PM EEST on April 24, 2014 (GMT +0300)
Donets'k (UKCC) Elev 738 ft | 48.07 °N, 37.74 °E | Change Station

Current weather conditions updated 3 minutes ago

Scattered Clouds
Scattered Clouds
64 °F
Feels Like 64 °F
N
18
Wind Variable Wind from NE
Sunrise 5:21 AM
Sunset 7:32 PM
Moon Waning Crescent

Today is forecast to be Cooler than yesterday.

Pressure 30.06 in
Visibility 6.2 miles
Clouds Scattered Clouds 4000 ft
Dew Point 39 °F
Humidity 40%
Rainfall 0.00 in
Snow Depth Not available.
UV 6 out of 16
Pollen Not available.
Air Quality Not available.
Flu Activity Not available.
METAR UKCC 241100Z 04008MPS 9999 SCT040 18/04 Q1018 08090070 NOSIG

More Conditions Fewer Conditions

Pressure 30.06 in
Visibility 6.2 miles
Clouds Scattered Clouds 4000 ft
Dew Point 39 °F
Humidity 40%
Rainfall 0.00 in
Snow Depth Not available.
UV 6 out of 16
Pollen Not available.
Air Quality Not available.
Flu Activity Not available.
METAR UKCC 241100Z 04008MPS 9999 SCT040 18/04 Q1018 08090070 NOSIG

More Conditions Fewer Conditions

10-Day Weather Forecast

Almanac

Astronomy

Apr. 24, 2014 Rise Set
Actual Time 5:21 AM EEST 7:32 PM EEST
Civil Twilight 4:47 AM EEST 8:06 PM EEST
Nautical Twilight 4:04 AM EEST 8:49 PM EEST
Astronomical Twilight 3:16 AM EEST 9:37 PM EEST
Moon 2:45 AM EEST 1:59 PM EEST
Length of Visible Light 15h 19m
Length of Day
14h 11m
Tomorrow will be 3m 17s longer.
Waning Crescent, 27% of the Moon is Illuminated
Today
Waning Crescent
Apr 29
New
May 6
First Quarter
May 14
Full
May 21
Last Quarter

Yesterday's Extremes

Country Highs Country Lows

Community

  • Stacked
    Stacked
  • clouds approaching Red Sox Nation
    clouds approaching Red Sox Nation
  • Balance
    Balance
  • Nestled In
    Nestled In
  • Stunning Sunrise
    Stunning Sunrise

WunderPhotos

Upload Photos

1,704,584 photos uploaded!

WunderBlogs® & News

Nearby

Snow Depth

Not available.

Coastal Water Temperatures

Place Temperature
No Stations Reporting

Earthquake Activity

City Distance Mag. Time & Date
No recent earthquake activity has been reported nearby.
Minimum magnitude displayed is 2.5.

Nearby Weather Stations

There are no personal weather stations in this area.

What do you think?

We're not finished. Please let us know what you like, what you don't like, and what you are still missing.